createdAt,value
2023-05-13T00:02:03.260Z,26.27
2023-05-13T00:04:29.805Z,27.33
2023-05-13T00:06:56.356Z,27.92
2023-05-13T00:09:22.935Z,25.48
2023-05-13T00:11:49.436Z,24.13
2023-05-13T00:14:16.085Z,31.63
2023-05-13T00:16:43.370Z,30.10
2023-05-13T00:19:10.063Z,30.30
2023-05-13T00:21:36.779Z,31.52
2023-05-13T00:24:03.546Z,33.92
2023-05-13T00:26:30.048Z,30.25
2023-05-13T00:28:56.643Z,31.80
2023-05-13T00:31:23.864Z,30.80
2023-05-13T00:33:50.475Z,27.98
2023-05-13T00:36:17.517Z,29.95
2023-05-13T00:38:44.286Z,29.17
2023-05-13T00:41:11.919Z,32.63
2023-05-13T00:43:38.514Z,28.95
2023-05-13T00:46:05.160Z,27.33
2023-05-13T00:48:32.690Z,30.10
2023-05-13T00:50:59.573Z,27.83
2023-05-13T00:53:26.502Z,31.10
2023-05-13T00:55:52.974Z,26.33
2023-05-13T00:58:19.520Z,29.42
2023-05-13T01:01:05.234Z,27.75
2023-05-13T01:03:54.799Z,33.10
2023-05-13T01:06:33.289Z,30.55
2023-05-13T01:09:20.085Z,29.60
2023-05-13T01:11:48.064Z,27.13
2023-05-13T01:14:19.076Z,26.45
2023-05-13T01:17:10.877Z,31.33
2023-05-13T01:22:21.313Z,23.20
2023-05-13T01:24:48.036Z,25.55
2023-05-13T01:27:14.707Z,27.70
2023-05-13T01:29:41.397Z,29.02
2023-05-13T01:32:09.971Z,23.23
2023-05-13T01:34:37.113Z,23.70
2023-05-13T01:37:04.592Z,27.13
2023-05-13T01:39:31.808Z,29.25
2023-05-13T01:42:03.311Z,27.55
2023-05-13T01:44:30.367Z,25.10
2023-05-13T01:46:57.393Z,28.25
2023-05-13T01:49:24.411Z,25.25
2023-05-13T01:51:52.087Z,26.50
2023-05-13T01:54:18.744Z,27.88
2023-05-13T01:56:50.574Z,24.70
2023-05-13T01:59:18.419Z,26.67
2023-05-13T02:01:45.781Z,29.13
2023-05-13T02:04:12.425Z,26.27
2023-05-13T02:06:40.842Z,26.13
2023-05-13T02:09:08.218Z,25.73
2023-05-13T02:11:38.054Z,24.02
2023-05-13T02:14:04.682Z,23.60
2023-05-13T02:16:31.665Z,23.38
2023-05-13T02:18:58.370Z,23.02
2023-05-13T02:21:28.074Z,25.02
2023-05-13T02:23:54.675Z,25.67
2023-05-13T02:26:22.160Z,23.92
2023-05-13T02:28:48.800Z,25.90
2023-05-13T02:31:15.461Z,23.00
2023-05-13T02:33:43.284Z,22.95
2023-05-13T02:36:09.838Z,21.08
2023-05-13T02:38:37.305Z,22.83
2023-05-13T02:41:05.645Z,21.80
2023-05-13T02:43:32.284Z,20.33
2023-05-13T02:46:03.954Z,29.23
2023-05-13T02:48:32.155Z,26.15
2023-05-13T02:50:58.674Z,23.40
2023-05-13T02:53:25.472Z,23.08
2023-05-13T02:55:55.518Z,23.13
2023-05-13T02:58:25.635Z,22.08
2023-05-13T03:00:53.133Z,26.73
2023-05-13T03:03:22.808Z,22.52
2023-05-13T03:05:49.486Z,23.80
2023-05-13T03:08:16.097Z,22.38
2023-05-13T03:10:43.802Z,23.15
2023-05-13T03:13:12.078Z,25.00
2023-05-13T03:15:38.723Z,25.90
2023-05-13T03:18:05.396Z,25.80
2023-05-13T03:20:32.026Z,24.75
2023-05-13T03:22:59.637Z,27.17
2023-05-13T03:25:26.283Z,27.05
2023-05-13T03:27:57.331Z,27.02
2023-05-13T03:30:26.904Z,29.20
2023-05-13T03:33:01.728Z,29.50
2023-05-13T03:35:28.458Z,26.90
2023-05-13T03:37:55.545Z,26.15
2023-05-13T03:40:22.479Z,27.67
2023-05-13T03:42:50.858Z,27.98
2023-05-13T03:45:18.942Z,29.73
2023-05-13T03:47:49.892Z,34.45
2023-05-13T03:50:17.571Z,27.35
2023-05-13T03:52:46.973Z,23.75
2023-05-13T03:55:15.322Z,27.90
2023-05-13T03:57:42.751Z,25.88
2023-05-13T04:00:10.577Z,21.77
2023-05-13T04:02:41.426Z,22.40
2023-05-13T04:05:09.585Z,22.27
2023-05-13T04:07:36.216Z,23.38
2023-05-13T04:10:02.984Z,22.55
2023-05-13T04:12:31.330Z,24.55
2023-05-13T04:14:57.845Z,24.00
2023-05-13T04:17:24.524Z,20.70
2023-05-13T04:19:54.433Z,22.95
2023-05-13T04:22:21.760Z,23.70
2023-05-13T04:24:52.074Z,26.80
2023-05-13T04:27:18.740Z,28.88
2023-05-13T04:29:46.851Z,25.95
2023-05-13T04:32:21.353Z,26.15
2023-05-13T04:34:50.342Z,27.40
2023-05-13T04:37:17.337Z,27.48
2023-05-13T04:39:46.554Z,22.10
2023-05-13T04:42:13.913Z,26.65
2023-05-13T04:44:40.562Z,20.20
2023-05-13T04:47:07.125Z,28.30
2023-05-13T04:49:33.995Z,23.73
2023-05-13T04:52:02.271Z,25.48
2023-05-13T04:54:30.489Z,23.40
2023-05-13T04:56:57.155Z,22.05
2023-05-13T04:59:24.422Z,26.38
2023-05-13T05:01:51.171Z,20.95
2023-05-13T05:04:17.885Z,23.33
2023-05-13T05:06:45.949Z,21.63
2023-05-13T05:09:12.764Z,23.02
2023-05-13T05:11:39.238Z,24.63
2023-05-13T05:14:05.905Z,23.55
2023-05-13T05:16:32.668Z,21.63
2023-05-13T05:19:00.296Z,22.65
2023-05-13T05:21:26.844Z,23.60
2023-05-13T05:23:54.635Z,23.83
2023-05-13T05:26:22.418Z,19.88
2023-05-13T05:28:48.975Z,22.20
2023-05-13T05:31:16.868Z,19.35
2023-05-13T05:33:44.305Z,22.23
2023-05-13T05:36:11.445Z,18.30
2023-05-13T05:38:38.361Z,19.73
2023-05-13T05:41:06.016Z,17.80
2023-05-13T05:43:32.597Z,21.20
2023-05-13T05:45:59.092Z,18.90
2023-05-13T05:48:25.743Z,19.63
2023-05-13T05:50:52.993Z,19.35
2023-05-13T05:53:25.859Z,18.45
2023-05-13T05:55:53.249Z,18.80
2023-05-13T05:58:20.638Z,18.48
2023-05-13T06:00:47.402Z,21.40
2023-05-13T06:03:14.223Z,18.90
2023-05-13T06:05:41.083Z,18.00
2023-05-13T06:08:07.661Z,16.55
2023-05-13T06:10:34.241Z,16.73
2023-05-13T06:13:00.863Z,16.02
2023-05-13T06:15:28.843Z,17.60
2023-05-13T06:17:55.486Z,18.15
2023-05-13T06:20:22.578Z,17.60
2023-05-13T06:22:50.511Z,22.73
2023-05-13T06:25:17.960Z,17.38
2023-05-13T06:27:44.426Z,16.50
2023-05-13T06:30:11.012Z,19.02
2023-05-13T06:32:53.410Z,13.93
2023-05-13T06:35:27.380Z,17.08
2023-05-13T06:37:53.913Z,16.75
2023-05-13T06:40:20.978Z,14.30
2023-05-13T06:42:47.966Z,17.67
2023-05-13T06:45:28.021Z,21.92
2023-05-13T06:47:55.260Z,14.15
2023-05-13T06:50:22.189Z,16.27
2023-05-13T06:52:49.076Z,15.60
2023-05-13T06:55:16.760Z,13.25
2023-05-13T06:57:46.756Z,17.92
2023-05-13T07:00:14.250Z,13.05
2023-05-13T07:02:41.305Z,14.02
2023-05-13T07:08:56.905Z,14.15
2023-05-13T07:11:23.379Z,12.45
2023-05-13T07:13:49.935Z,15.48
2023-05-13T07:16:17.235Z,13.98
2023-05-13T07:18:43.858Z,12.93
2023-05-13T07:21:10.661Z,14.13
2023-05-13T07:23:37.077Z,13.07
2023-05-13T07:26:04.049Z,17.48
2023-05-13T07:28:30.818Z,15.15
2023-05-13T07:30:57.502Z,13.82
2023-05-13T07:33:24.023Z,14.57
2023-05-13T07:35:53.591Z,14.55
2023-05-13T07:38:20.166Z,12.93
2023-05-13T07:40:46.752Z,9.77
2023-05-13T07:43:14.084Z,11.95
2023-05-13T07:45:40.618Z,16.67
2023-05-13T07:48:07.426Z,11.45
2023-05-13T07:50:34.092Z,11.88
2023-05-13T07:53:00.595Z,13.10
2023-05-13T07:55:27.149Z,14.00
2023-05-13T07:57:53.581Z,17.00
2023-05-13T08:00:20.428Z,17.85
2023-05-13T08:02:47.038Z,15.40
2023-05-13T08:05:13.771Z,15.35
2023-05-13T08:07:40.308Z,14.95
2023-05-13T08:10:07.098Z,14.75
2023-05-13T08:12:33.596Z,15.43
2023-05-13T08:15:00.884Z,15.38
2023-05-13T08:17:27.474Z,15.50
2023-05-13T08:19:54.321Z,15.02
2023-05-13T08:22:20.768Z,13.60
2023-05-13T08:24:47.300Z,12.85
2023-05-13T08:27:13.806Z,13.90
2023-05-13T08:29:40.345Z,10.30
2023-05-13T08:32:06.879Z,16.63
2023-05-13T08:34:33.697Z,17.02
2023-05-13T08:37:00.310Z,24.13
2023-05-13T08:39:26.926Z,15.20
2023-05-13T08:41:56.924Z,14.68
2023-05-13T08:44:28.692Z,15.27
2023-05-13T08:47:15.591Z,15.60
2023-05-13T08:49:42.318Z,14.57
2023-05-13T08:52:08.796Z,15.88
2023-05-13T08:54:36.361Z,20.25
2023-05-13T08:57:03.406Z,18.52
2023-05-13T08:59:29.959Z,16.52
2023-05-13T09:01:56.843Z,16.13
2023-05-13T09:04:24.027Z,17.48
2023-05-13T09:06:50.628Z,15.05
2023-05-13T09:09:17.315Z,14.52
2023-05-13T09:11:46.927Z,14.75
2023-05-13T09:14:14.321Z,13.43
2023-05-13T09:16:42.123Z,13.13
2023-05-13T09:19:08.904Z,12.23
2023-05-13T09:21:36.124Z,15.30
2023-05-13T09:24:08.672Z,14.80
2023-05-13T09:26:37.289Z,13.52
2023-05-13T09:29:14.019Z,14.70
2023-05-13T09:31:41.178Z,15.20
2023-05-13T09:34:07.798Z,13.00
2023-05-13T09:36:34.373Z,11.52
2023-05-13T09:39:02.646Z,11.25
2023-05-13T09:41:30.881Z,15.13
2023-05-13T09:44:04.102Z,13.63
2023-05-13T09:46:31.279Z,11.85
2023-05-13T09:48:58.924Z,12.77
2023-05-13T09:51:26.442Z,10.07
2023-05-13T09:53:53.453Z,14.75
2023-05-13T09:56:22.283Z,12.00
2023-05-13T09:58:52.797Z,12.63
2023-05-13T10:01:20.175Z,12.50
2023-05-13T10:03:46.826Z,11.48
2023-05-13T10:06:14.730Z,11.40
2023-05-13T10:08:42.277Z,11.48
2023-05-13T10:11:08.885Z,9.73
2023-05-13T10:13:36.213Z,11.07
2023-05-13T10:16:02.965Z,13.35
2023-05-13T10:18:29.759Z,14.32
2023-05-13T10:20:56.900Z,12.73
2023-05-13T10:23:24.449Z,12.60
2023-05-13T10:25:52.715Z,18.42
2023-05-13T10:28:20.154Z,12.25
2023-05-13T10:30:48.622Z,18.60
2023-05-13T10:33:16.033Z,12.18
2023-05-13T10:35:49.904Z,13.07
2023-05-13T10:38:30.030Z,14.18
2023-05-13T10:41:06.041Z,11.57
2023-05-13T10:43:34.334Z,10.13
2023-05-13T10:46:02.383Z,11.75
2023-05-13T10:48:43.279Z,14.35
2023-05-13T10:51:13.515Z,13.35
2023-05-13T10:53:59.075Z,10.88
2023-05-13T10:56:27.045Z,11.93
2023-05-13T10:59:03.607Z,14.50
2023-05-13T11:01:33.731Z,11.45
2023-05-13T11:04:01.390Z,10.10
2023-05-13T11:06:34.246Z,10.77
2023-05-13T11:09:00.789Z,10.75
2023-05-13T11:11:29.981Z,12.55
2023-05-13T11:14:17.237Z,13.45
2023-05-13T11:16:56.523Z,11.50
2023-05-13T11:19:27.359Z,12.73
2023-05-13T11:21:56.285Z,14.90
2023-05-13T11:24:23.077Z,12.82
2023-05-13T11:26:56.609Z,11.02
2023-05-13T11:29:33.273Z,12.43
2023-05-13T11:32:01.094Z,14.88
2023-05-13T11:34:28.184Z,12.20
2023-05-13T11:36:57.767Z,11.32
2023-05-13T11:39:26.529Z,12.48
2023-05-13T11:41:53.919Z,10.88
2023-05-13T11:44:21.589Z,12.90
2023-05-13T11:46:55.659Z,10.32
2023-05-13T11:49:34.096Z,12.45
2023-05-13T11:52:01.390Z,12.60
2023-05-13T11:54:28.115Z,12.77
2023-05-13T11:56:54.668Z,14.18
2023-05-13T11:59:21.172Z,10.88
2023-05-13T12:01:58.100Z,12.90
2023-05-13T12:04:28.415Z,16.80
2023-05-13T12:06:55.010Z,12.27
2023-05-13T12:09:24.951Z,12.80
2023-05-13T12:11:52.723Z,12.30
2023-05-13T12:14:20.407Z,11.38
2023-05-13T12:16:47.233Z,12.77
2023-05-13T12:19:13.831Z,18.05
2023-05-13T12:21:40.641Z,12.20
2023-05-13T12:24:19.893Z,16.73
2023-05-13T12:26:46.552Z,12.77
2023-05-13T12:29:13.240Z,12.82
2023-05-13T12:31:41.921Z,14.07
2023-05-13T12:34:08.473Z,11.38
2023-05-13T12:36:38.534Z,13.82
2023-05-13T12:39:09.115Z,16.02
2023-05-13T12:41:37.002Z,11.73
2023-05-13T12:44:10.637Z,12.18
2023-05-13T12:46:37.547Z,11.37
2023-05-13T12:49:04.896Z,12.20
2023-05-13T12:51:31.714Z,11.52
2023-05-13T12:53:58.516Z,12.13
2023-05-13T12:56:25.638Z,13.20
2023-05-13T12:58:55.406Z,12.50
2023-05-13T13:01:22.107Z,10.88
2023-05-13T13:03:48.791Z,12.32
2023-05-13T13:06:15.630Z,11.20
2023-05-13T13:08:42.443Z,13.40
2023-05-13T13:11:09.324Z,11.55
2023-05-13T13:13:38.758Z,9.90
2023-05-13T13:16:06.289Z,11.57
2023-05-13T13:18:32.846Z,12.05
2023-05-13T13:20:59.341Z,12.80
2023-05-13T13:23:25.921Z,10.50
2023-05-13T13:25:52.584Z,12.40
2023-05-13T13:28:19.010Z,9.88
2023-05-13T13:30:48.242Z,11.90
2023-05-13T13:33:15.644Z,9.10
2023-05-13T13:35:45.719Z,14.02
2023-05-13T13:38:12.495Z,12.30
2023-05-13T13:40:39.105Z,17.02
2023-05-13T13:43:06.899Z,12.50
2023-05-13T13:45:33.524Z,16.13
2023-05-13T13:48:00.465Z,11.35
2023-05-13T13:50:27.157Z,13.38
2023-05-13T13:52:53.725Z,14.35
2023-05-13T13:55:20.719Z,15.23
2023-05-13T13:57:47.391Z,13.60
2023-05-13T14:00:14.913Z,13.85
2023-05-13T14:02:42.100Z,14.45
2023-05-13T14:05:08.886Z,12.10
2023-05-13T14:07:36.112Z,12.75
2023-05-13T14:10:02.749Z,12.55
2023-05-13T14:12:29.462Z,9.57
2023-05-13T14:14:55.960Z,10.10
2023-05-13T14:17:22.587Z,12.55
2023-05-13T14:19:51.800Z,13.77
2023-05-13T14:22:18.462Z,16.35
2023-05-13T14:24:45.082Z,12.85
2023-05-13T14:27:11.695Z,12.60
2023-05-13T14:29:38.237Z,12.80
2023-05-13T14:32:05.106Z,13.77
2023-05-13T14:34:32.562Z,11.70
2023-05-13T14:37:01.812Z,12.57
2023-05-13T14:39:28.299Z,12.43
2023-05-13T14:41:54.926Z,13.15
2023-05-13T14:44:21.898Z,12.10
2023-05-13T14:46:48.546Z,12.77
2023-05-13T14:49:15.426Z,11.95
2023-05-13T14:51:42.027Z,13.48
2023-05-13T14:54:08.514Z,10.73
2023-05-13T14:56:35.453Z,12.35
2023-05-13T14:59:02.471Z,13.25
2023-05-13T15:01:29.003Z,11.98
2023-05-13T15:03:58.110Z,13.23
2023-05-13T15:06:24.707Z,12.75
2023-05-13T15:08:51.182Z,15.02
2023-05-13T15:11:17.727Z,11.85
2023-05-13T15:13:44.217Z,11.13
2023-05-13T15:16:11.582Z,14.50
2023-05-13T15:18:38.048Z,12.27
2023-05-13T15:21:04.647Z,13.07
2023-05-13T15:23:31.183Z,15.25
2023-05-13T15:25:58.182Z,13.15
2023-05-13T15:28:24.937Z,16.00
2023-05-13T15:30:51.683Z,13.55
2023-05-13T15:33:18.389Z,17.08
2023-05-13T15:35:45.149Z,17.92
2023-05-13T15:38:11.665Z,13.80
2023-05-13T15:40:38.839Z,12.18
2023-05-13T15:43:05.419Z,18.48
2023-05-13T15:45:31.990Z,14.48
2023-05-13T15:47:58.570Z,12.65
2023-05-13T15:50:26.321Z,15.43
2023-05-13T15:52:54.667Z,14.95
2023-05-13T15:55:21.740Z,15.73
2023-05-13T15:57:50.177Z,17.00
2023-05-13T16:00:17.593Z,14.93
2023-05-13T16:02:44.322Z,13.02
2023-05-13T16:05:15.669Z,17.13
2023-05-13T16:07:42.768Z,15.15
2023-05-13T16:10:09.447Z,14.90
2023-05-13T16:12:36.283Z,12.57
2023-05-13T16:15:03.503Z,12.75
2023-05-13T16:17:30.071Z,16.73
2023-05-13T16:19:56.669Z,13.57
2023-05-13T16:22:30.173Z,13.13
2023-05-13T16:25:01.156Z,13.07
2023-05-13T16:27:28.806Z,12.90
2023-05-13T16:29:56.330Z,18.02
2023-05-13T16:32:23.003Z,15.65
2023-05-13T16:34:49.783Z,13.10
2023-05-13T16:37:16.458Z,15.68
2023-05-13T16:39:43.050Z,17.48
2023-05-13T16:42:09.594Z,16.08
2023-05-13T16:44:36.134Z,14.60
2023-05-13T16:47:02.882Z,11.25
2023-05-13T16:49:29.402Z,16.40
2023-05-13T16:51:56.037Z,20.85
2023-05-13T16:54:22.592Z,13.25
2023-05-13T16:56:50.488Z,15.90
2023-05-13T16:59:22.164Z,12.02
2023-05-13T17:01:49.129Z,15.20
2023-05-13T17:04:16.102Z,15.63
2023-05-13T17:06:42.942Z,12.52
2023-05-13T17:09:09.632Z,15.80
2023-05-13T17:11:36.634Z,14.13
2023-05-13T17:14:03.532Z,13.70
2023-05-13T17:16:30.145Z,14.10
2023-05-13T17:18:58.922Z,13.23
2023-05-13T17:21:25.778Z,14.43
2023-05-13T17:23:52.299Z,14.65
2023-05-13T17:26:19.660Z,15.60
2023-05-13T17:28:46.077Z,16.63
2023-05-13T17:31:12.764Z,14.55
2023-05-13T17:33:39.283Z,17.08
2023-05-13T17:36:05.904Z,17.35
2023-05-13T17:38:32.426Z,19.23
2023-05-13T17:40:59.170Z,15.15
2023-05-13T17:43:25.632Z,14.48
2023-05-13T17:45:52.184Z,17.65
2023-05-13T17:48:18.736Z,18.33
2023-05-13T17:50:45.410Z,17.83
2023-05-13T17:53:12.040Z,17.42
2023-05-13T17:55:38.620Z,18.58
2023-05-13T17:58:05.090Z,20.23
2023-05-13T18:00:31.723Z,16.27
2023-05-13T18:02:58.261Z,18.63
2023-05-13T18:05:24.859Z,19.13
2023-05-13T18:07:51.423Z,14.27
2023-05-13T18:10:17.978Z,18.58
2023-05-13T18:12:44.676Z,17.73
2023-05-13T18:15:11.358Z,16.45
2023-05-13T18:17:37.821Z,19.45
2023-05-13T18:20:05.284Z,17.83
2023-05-13T18:22:31.842Z,17.63
2023-05-13T18:24:58.371Z,16.13
2023-05-13T18:27:24.874Z,16.90
2023-05-13T18:29:51.634Z,18.55
2023-05-13T18:32:18.171Z,18.52
2023-05-13T18:34:44.659Z,16.90
2023-05-13T18:37:11.140Z,20.33
2023-05-13T18:39:37.715Z,19.50
2023-05-13T18:42:04.340Z,18.70
2023-05-13T18:44:30.893Z,16.30
2023-05-13T18:46:57.388Z,19.23
2023-05-13T18:49:24.839Z,19.17
2023-05-13T18:51:51.382Z,18.15
2023-05-13T18:54:17.888Z,19.25
2023-05-13T18:56:44.403Z,17.98
2023-05-13T18:59:11.035Z,16.85
2023-05-13T19:01:37.636Z,19.90
2023-05-13T19:04:04.358Z,18.95
2023-05-13T19:06:39.967Z,20.33
2023-05-13T19:09:06.686Z,22.13
2023-05-13T19:11:33.362Z,20.33
2023-05-13T19:13:59.910Z,22.17
2023-05-13T19:16:26.540Z,18.38
2023-05-13T19:18:53.327Z,19.63
2023-05-13T19:21:21.886Z,23.90
2023-05-13T19:23:48.463Z,19.75
2023-05-13T19:26:15.118Z,18.20
2023-05-13T19:28:44.875Z,20.15
2023-05-13T19:31:11.395Z,19.80
2023-05-13T19:33:37.945Z,23.10
2023-05-13T19:36:05.122Z,24.02
2023-05-13T19:38:31.792Z,21.55
2023-05-13T19:40:58.313Z,21.40
2023-05-13T19:43:24.958Z,21.48
2023-05-13T19:45:51.976Z,21.20
2023-05-13T19:48:18.610Z,20.40
2023-05-13T19:50:45.117Z,22.48
2023-05-13T19:53:12.576Z,20.92
2023-05-13T19:55:39.069Z,20.67
2023-05-13T19:58:05.691Z,24.15
2023-05-13T20:00:32.261Z,22.27
2023-05-13T20:02:58.945Z,21.15
2023-05-13T20:05:25.685Z,22.52
2023-05-13T20:07:52.168Z,19.65
2023-05-13T20:10:18.617Z,23.60
2023-05-13T20:12:45.096Z,23.17
2023-05-13T20:15:11.627Z,24.42
2023-05-13T20:17:38.364Z,24.27
2023-05-13T20:20:05.317Z,21.02
2023-05-13T20:22:32.003Z,26.45
2023-05-13T20:24:59.029Z,22.25
2023-05-13T20:27:25.740Z,21.13
2023-05-13T20:29:52.464Z,24.75
2023-05-13T20:32:24.416Z,22.80
2023-05-13T20:34:54.709Z,24.65
2023-05-13T20:37:24.001Z,19.67
2023-05-13T20:39:51.381Z,23.08
2023-05-13T20:42:17.943Z,23.52
2023-05-13T20:44:46.380Z,21.25
2023-05-13T20:47:13.333Z,24.70
2023-05-13T20:49:43.551Z,24.20
2023-05-13T20:52:10.973Z,24.60
2023-05-13T20:54:37.747Z,30.83
2023-05-13T20:57:04.636Z,21.38
2023-05-13T20:59:31.132Z,29.38
2023-05-13T21:01:57.830Z,26.13
2023-05-13T21:04:25.602Z,23.50
2023-05-13T21:06:52.992Z,23.70
2023-05-13T21:09:19.538Z,26.95
2023-05-13T21:11:46.206Z,30.17
2023-05-13T21:14:12.720Z,25.67
2023-05-13T21:16:39.336Z,24.73
2023-05-13T21:19:06.088Z,24.60
2023-05-13T21:21:32.806Z,25.30
2023-05-13T21:23:59.337Z,29.27
2023-05-13T21:26:26.277Z,24.80
2023-05-13T21:28:52.853Z,30.48
2023-05-13T21:31:19.472Z,27.15
2023-05-13T21:33:46.037Z,26.70
2023-05-13T21:36:12.598Z,27.08
2023-05-13T21:38:39.002Z,32.70
2023-05-13T21:41:05.545Z,25.70
2023-05-13T21:43:32.036Z,29.83
2023-05-13T21:45:58.615Z,26.52
2023-05-13T21:48:25.203Z,26.35
2023-05-13T21:50:52.785Z,32.08
2023-05-13T21:53:19.334Z,28.88
2023-05-13T21:55:45.990Z,34.13
2023-05-13T21:58:12.976Z,25.15
2023-05-13T22:00:39.490Z,29.08
2023-05-13T22:03:06.208Z,29.92
2023-05-13T22:05:32.957Z,28.45
2023-05-13T22:08:00.201Z,35.38
2023-05-13T22:10:26.962Z,29.00
2023-05-13T22:12:53.542Z,26.52
2023-05-13T22:15:20.088Z,30.00
2023-05-13T22:17:49.069Z,30.08
2023-05-13T22:20:17.052Z,34.55
2023-05-13T22:22:43.540Z,32.08
2023-05-13T22:25:10.216Z,30.52
2023-05-13T22:27:36.769Z,31.35
2023-05-13T22:30:03.480Z,28.58
2023-05-13T22:32:30.122Z,30.40
2023-05-13T22:34:56.709Z,31.10
2023-05-13T22:37:23.264Z,26.60
2023-05-13T22:39:49.878Z,30.33
2023-05-13T22:42:16.602Z,30.33
2023-05-13T22:44:43.218Z,29.35
2023-05-13T22:47:09.732Z,32.60
2023-05-13T22:49:36.261Z,32.88
2023-05-13T22:52:02.831Z,28.98
2023-05-13T22:54:29.500Z,31.80
2023-05-13T22:56:56.034Z,29.50
2023-05-13T22:59:22.627Z,32.97
2023-05-13T23:01:49.215Z,26.48
2023-05-13T23:04:15.840Z,26.35
2023-05-13T23:06:42.446Z,26.75
2023-05-13T23:09:10.224Z,32.83
2023-05-13T23:11:37.041Z,31.58
2023-05-13T23:14:03.556Z,29.05
2023-05-13T23:16:30.084Z,32.35
2023-05-13T23:18:56.707Z,32.72
2023-05-13T23:21:23.245Z,30.23
2023-05-13T23:23:50.481Z,27.30
2023-05-13T23:26:16.971Z,27.23
2023-05-13T23:28:43.492Z,28.65
2023-05-13T23:31:10.025Z,26.92
2023-05-13T23:33:36.579Z,29.15
2023-05-13T23:36:03.685Z,26.00
2023-05-13T23:38:30.472Z,27.08
2023-05-13T23:40:57.287Z,26.00
2023-05-13T23:43:23.772Z,27.48
2023-05-13T23:45:50.417Z,28.05
2023-05-13T23:48:16.930Z,26.58
2023-05-13T23:50:43.511Z,26.30
2023-05-13T23:53:10.055Z,26.17
2023-05-13T23:55:36.526Z,29.08
2023-05-13T23:58:03.008Z,28.73
